LTAF/ADA METAR and TAF weather

Enter ICAO airport designator
Station Type Date Time Source
LTAF METAR 2019/04/25 17:20 UTC NOAA

LTAF 251720Z 26003KT 210V300 CAVOK 19/07 Q1019 NOSIG


Station Type Date Time Source
LTAF Decoded METAR 2019/04/25 17:20 UTC NOAA

Adana / Sakirpasa, Turkey (LTAF) 36-59N 035-18E 20M
Apr 25, 2019 - 01:20 PM EDT / 2019.04.25 1720 UTC
Wind: from the W (260 degrees) at 3 MPH (3 KT) (direction variable):0
Visibility: greater than 7 mile(s):0
Temperature: 66 F (19 C)
Dew Point: 44 F (7 C)
Relative Humidity: 45%
Pressure (altimeter): 30.09 in. Hg (1019 hPa)
ob: LTAF 251720Z 26003KT 210V300 CAVOK 19/07 Q1019 NOSIG
cycle: 17

Station Type Date Time Source
LTAF TAF 2019/04/25 18:00 UTC NOAA

TAF LTAF 251640Z 2518/2618 VRB02KT CAVOK

Example: see airport list